CES888 ZSPD-RCKH
Flight info
| Callsign | CES888 |
|---|---|
| Flight time | N/A |
| Altitude | 36000 |
| Route | ZSPD SID HSN W13 BEGMO M503 OKATO R596 VIOLA L3 APU B1 ANLOT W4 TNN STAR RCKH |
| Aircraft | B77W/H-CES/L |
Departure
| Time | N/A |
|---|---|
| Airport | Shanghai Pudong International Airport (ZSPD) |
Arrival
| Time | 2026-04-17 12:37 |
|---|---|
| Airport | Kaohsiung International Airport (RCKH) |
| Time | Latitude | Longitude | Altitude | Speed | Heading |
|---|---|---|---|---|---|
| 2026-04-17 12:28 | 23.09275 | 120.15027 | 10210 ft | 356 kts | 172° |
| 2026-04-17 12:28 | 23.06989 | 120.15781 | 9879 ft | 342 kts | 155° |
| 2026-04-17 12:29 | 23.02218 | 120.17342 | 9147 ft | 306 kts | 184° |
| 2026-04-17 12:29 | 22.98674 | 120.16830 | 8591 ft | 292 kts | 191° |
| 2026-04-17 12:29 | 22.96708 | 120.16479 | 8258 ft | 283 kts | 191° |
| 2026-04-17 12:29 | 22.90065 | 120.15286 | 6859 ft | 274 kts | 190° |
| 2026-04-17 12:30 | 22.83373 | 120.14085 | 5028 ft | 276 kts | 189° |
| 2026-04-17 12:30 | 22.80805 | 120.13625 | 4415 ft | 272 kts | 189° |
| 2026-04-17 12:30 | 22.78964 | 120.13295 | 4387 ft | 267 kts | 189° |
| 2026-04-17 12:30 | 22.77122 | 120.12965 | 4418 ft | 266 kts | 189° |
| 2026-04-17 12:31 | 22.71343 | 120.11919 | 4435 ft | 266 kts | 191° |
| 2026-04-17 12:31 | 22.69089 | 120.11424 | 4313 ft | 270 kts | 191° |
| 2026-04-17 12:31 | 22.67256 | 120.11050 | 3986 ft | 268 kts | 191° |
| 2026-04-17 12:31 | 22.65424 | 120.10678 | 3585 ft | 262 kts | 191° |
| 2026-04-17 12:32 | 22.63643 | 120.10313 | 3230 ft | 260 kts | 191° |
| 2026-04-17 12:32 | 22.61865 | 120.10080 | 2925 ft | 248 kts | 174° |
| 2026-04-17 12:32 | 22.60342 | 120.10653 | 2878 ft | 225 kts | 142° |
| 2026-04-17 12:32 | 22.59200 | 120.11754 | 2890 ft | 214 kts | 132° |
| 2026-04-17 12:33 | 22.58461 | 120.13084 | 2905 ft | 200 kts | 102° |
| 2026-04-17 12:33 | 22.58308 | 120.14529 | 2898 ft | 188 kts | 90° |
| 2026-04-17 12:33 | 22.58273 | 120.15933 | 2896 ft | 184 kts | 89° |
| 2026-04-17 12:33 | 22.58242 | 120.17306 | 2901 ft | 180 kts | 89° |
| 2026-04-17 12:34 | 22.58204 | 120.18618 | 2687 ft | 168 kts | 89° |
| 2026-04-17 12:34 | 22.58168 | 120.19846 | 2481 ft | 159 kts | 89° |
| 2026-04-17 12:34 | 22.58133 | 120.21026 | 2283 ft | 154 kts | 89° |
| 2026-04-17 12:34 | 22.58100 | 120.22163 | 2089 ft | 152 kts | 89° |
| 2026-04-17 12:35 | 22.58065 | 120.23307 | 1896 ft | 154 kts | 89° |
| 2026-04-17 12:35 | 22.58029 | 120.24516 | 1689 ft | 164 kts | 89° |
| 2026-04-17 12:35 | 22.57991 | 120.25763 | 1468 ft | 167 kts | 89° |
| 2026-04-17 12:35 | 22.57952 | 120.27034 | 1241 ft | 166 kts | 90° |
| 2026-04-17 12:37 | 22.57706 | 120.34992 | 45 ft | 17 kts | 92° |